aviador You're here:

KCVW Decoded Metar

in
Report Time2017-05-28 23:55:00
UTC Time2017-05-29 00:05:57
Flight Rules mvfr MVFR
Wind160° at 15 Gusting to 20 kt
W.Rank160° ranks 4
Current wind is above 160° avg. (8.7)
Visibility6437 m
Phenomena:Haze
Clouds:N/A
Expected CloudBase > 800 ft AGL from Temp-Dew spread
CeilingNone
Temp27°C
Dew Point25°C (89% RH)
Heat Index30.6°C
QNH1010 hPa
Raw Report
KCVW 282355Z AUTO 16015G20KT 4SM HZ CLR 27/25 A2982 RMK A01=

Extra information for KCVW:More info

Social comments